sensor_id;sensor_type;location;lat;lon;timestamp;pressure;altitude;pressure_sealevel;temperature;humidity
67697;BME280;54486;51.442;6.778;2023-02-17T00:00:34;101851.66;;;10.94;94.71
67697;BME280;54486;51.442;6.778;2023-02-17T00:03:02;101849.84;;;10.87;95.33
67697;BME280;54486;51.442;6.778;2023-02-17T00:05:29;101855.06;;;10.87;95.38
67697;BME280;54486;51.442;6.778;2023-02-17T00:07:58;101846.41;;;10.94;95.50
67697;BME280;54486;51.442;6.778;2023-02-17T00:10:26;101839.41;;;10.90;95.58
67697;BME280;54486;51.442;6.778;2023-02-17T00:12:53;101850.78;;;10.97;95.46
67697;BME280;54486;51.442;6.778;2023-02-17T00:15:19;101842.94;;;10.98;95.31
67697;BME280;54486;51.442;6.778;2023-02-17T00:17:46;101845.50;;;10.92;95.34
67697;BME280;54486;51.442;6.778;2023-02-17T00:20:13;101842.06;;;10.95;95.64
67697;BME280;54486;51.442;6.778;2023-02-17T00:22:40;101838.63;;;10.97;95.56
67697;BME280;54486;51.442;6.778;2023-02-17T00:25:06;101842.06;;;10.96;95.75
67697;BME280;54486;51.442;6.778;2023-02-17T00:27:36;101839.50;;;10.99;95.81
67697;BME280;54486;51.442;6.778;2023-02-17T00:30:03;101837.69;;;10.95;95.77
67697;BME280;54486;51.442;6.778;2023-02-17T00:32:30;101836.91;;;11.05;95.33
67697;BME280;54486;51.442;6.778;2023-02-17T00:34:57;101831.69;;;11.05;95.63
67697;BME280;54486;51.442;6.778;2023-02-17T00:37:24;101823.84;;;11.02;95.39
67697;BME280;54486;51.442;6.778;2023-02-17T00:39:52;101832.59;;;11.10;95.45
67697;BME280;54486;51.442;6.778;2023-02-17T00:42:19;101839.56;;;11.08;95.02
67697;BME280;54486;51.442;6.778;2023-02-17T00:44:46;101830.88;;;11.09;95.06
67697;BME280;54486;51.442;6.778;2023-02-17T00:47:13;101830.84;;;11.08;95.11
67697;BME280;54486;51.442;6.778;2023-02-17T00:49:40;101832.69;;;11.20;95.35
67697;BME280;54486;51.442;6.778;2023-02-17T00:52:07;101834.31;;;11.08;95.37
67697;BME280;54486;51.442;6.778;2023-02-17T00:54:35;101834.34;;;11.11;95.68
67697;BME280;54486;51.442;6.778;2023-02-17T00:57:02;101823.88;;;11.08;95.60
67697;BME280;54486;51.442;6.778;2023-02-17T00:59:32;101823.94;;;11.16;96.08
67697;BME280;54486;51.442;6.778;2023-02-17T01:01:59;101820.41;;;11.06;96.23
67697;BME280;54486;51.442;6.778;2023-02-17T01:04:26;101816.88;;;11.04;96.84
67697;BME280;54486;51.442;6.778;2023-02-17T01:06:53;101804.66;;;10.97;98.29
67697;BME280;54486;51.442;6.778;2023-02-17T01:09:21;101815.03;;;10.91;98.76
67697;BME280;54486;51.442;6.778;2023-02-17T01:11:53;101809.78;;;10.88;99.19
67697;BME280;54486;51.442;6.778;2023-02-17T01:14:28;101808.09;;;10.90;99.45
67697;BME280;54486;51.442;6.778;2023-02-17T01:16:55;101818.53;;;10.90;100.00
67697;BME280;54486;51.442;6.778;2023-02-17T01:19:22;101810.63;;;10.83;100.00
67697;BME280;54486;51.442;6.778;2023-02-17T01:21:52;101812.31;;;10.79;100.00
67697;BME280;54486;51.442;6.778;2023-02-17T01:24:19;101811.47;;;10.80;100.00
67697;BME280;54486;51.442;6.778;2023-02-17T01:26:46;101816.63;;;10.71;100.00
67697;BME280;54486;51.442;6.778;2023-02-17T01:29:13;101809.66;;;10.73;100.00
67697;BME280;54486;51.442;6.778;2023-02-17T01:31:40;101807.03;;;10.70;100.00
67697;BME280;54486;51.442;6.778;2023-02-17T01:34:08;101800.03;;;10.66;100.00
67697;BME280;54486;51.442;6.778;2023-02-17T01:36:35;101797.44;;;10.69;100.00
67697;BME280;54486;51.442;6.778;2023-02-17T01:39:02;101792.25;;;10.72;100.00
67697;BME280;54486;51.442;6.778;2023-02-17T01:41:30;101794.84;;;10.69;100.00
67697;BME280;54486;51.442;6.778;2023-02-17T01:46:50;101783.53;;;10.67;100.00
67697;BME280;54486;51.442;6.778;2023-02-17T01:49:32;101780.84;;;10.61;100.00
67697;BME280;54486;51.442;6.778;2023-02-17T01:52:03;101779.97;;;10.59;100.00
67697;BME280;54486;51.442;6.778;2023-02-17T01:54:35;101773.06;;;10.64;100.00
67697;BME280;54486;51.442;6.778;2023-02-17T01:57:03;101766.06;;;10.58;100.00
67697;BME280;54486;51.442;6.778;2023-02-17T01:59:33;101760.84;;;10.60;100.00
67697;BME280;54486;51.442;6.778;2023-02-17T02:02:01;101770.47;;;10.66;100.00
67697;BME280;54486;51.442;6.778;2023-02-17T02:04:34;101757.31;;;10.55;100.00
67697;BME280;54486;51.442;6.778;2023-02-17T02:07:04;101760.88;;;10.66;100.00
67697;BME280;54486;51.442;6.778;2023-02-17T02:09:37;101759.09;;;10.59;100.00
67697;BME280;54486;51.442;6.778;2023-02-17T02:12:24;101761.69;;;10.57;100.00
67697;BME280;54486;51.442;6.778;2023-02-17T02:14:51;101761.72;;;10.60;100.00
67697;BME280;54486;51.442;6.778;2023-02-17T02:17:34;101759.09;;;10.59;100.00
67697;BME280;54486;51.442;6.778;2023-02-17T02:33:50;101750.53;;;10.75;100.00
67697;BME280;54486;51.442;6.778;2023-02-17T02:36:40;101741.88;;;10.85;100.00
67697;BME280;54486;51.442;6.778;2023-02-17T02:39:10;101740.16;;;10.87;100.00
67697;BME280;54486;51.442;6.778;2023-02-17T02:41:40;101734.94;;;10.84;100.00
67697;BME280;54486;51.442;6.778;2023-02-17T02:44:08;101738.41;;;10.86;100.00
67697;BME280;54486;51.442;6.778;2023-02-17T02:46:36;101736.75;;;10.94;99.95
67697;BME280;54486;51.442;6.778;2023-02-17T02:49:04;101729.78;;;10.96;99.26
67697;BME280;54486;51.442;6.778;2023-02-17T03:01:54;101708.06;;;11.00;98.70
67697;BME280;54486;51.442;6.778;2023-02-17T03:04:30;101715.00;;;10.97;98.72
67697;BME280;54486;51.442;6.778;2023-02-17T03:07:04;101706.34;;;11.04;98.03
67697;BME280;54486;51.442;6.778;2023-02-17T03:09:34;101696.72;;;11.04;97.86
67697;BME280;54486;51.442;6.778;2023-02-17T03:12:01;101705.47;;;11.06;97.96
67697;BME280;54486;51.442;6.778;2023-02-17T03:14:29;101697.63;;;11.05;97.80
67697;BME280;54486;51.442;6.778;2023-02-17T03:17:01;101698.50;;;11.05;97.51
67697;BME280;54486;51.442;6.778;2023-02-17T03:19:28;101696.72;;;11.04;97.99
67697;BME280;54486;51.442;6.778;2023-02-17T03:22:08;101699.38;;;11.09;97.12
67697;BME280;54486;51.442;6.778;2023-02-17T03:24:38;101694.19;;;11.15;97.33
67697;BME280;54486;51.442;6.778;2023-02-17T03:27:08;101691.59;;;11.13;96.90
67697;BME280;54486;51.442;6.778;2023-02-17T03:29:36;101686.31;;;11.10;97.13
67697;BME280;54486;51.442;6.778;2023-02-17T03:32:02;101695.03;;;11.06;97.61
67697;BME280;54486;51.442;6.778;2023-02-17T03:34:30;101699.38;;;11.09;97.18
67697;BME280;54486;51.442;6.778;2023-02-17T03:37:00;101702.00;;;11.10;97.38
67697;BME280;54486;51.442;6.778;2023-02-17T03:39:27;101700.25;;;11.09;97.01
67697;BME280;54486;51.442;6.778;2023-02-17T03:41:54;101696.75;;;11.10;97.22
67697;BME280;54486;51.442;6.778;2023-02-17T03:44:21;101702.03;;;11.13;96.73
67697;BME280;54486;51.442;6.778;2023-02-17T03:46:48;101713.34;;;11.15;96.45
67697;BME280;54486;51.442;6.778;2023-02-17T03:49:16;101703.75;;;11.14;97.04
67697;BME280;54486;51.442;6.778;2023-02-17T03:51:44;101711.59;;;11.14;96.65
67697;BME280;54486;51.442;6.778;2023-02-17T03:54:11;101707.25;;;11.13;96.48
67697;BME280;54486;51.442;6.778;2023-02-17T03:56:38;101708.97;;;11.11;96.71
67697;BME280;54486;51.442;6.778;2023-02-17T03:59:05;101698.53;;;11.14;96.45
67697;BME280;54486;51.442;6.778;2023-02-17T04:01:33;101704.63;;;11.15;96.57
67697;BME280;54486;51.442;6.778;2023-02-17T04:04:00;101707.25;;;11.13;96.36
67697;BME280;54486;51.442;6.778;2023-02-17T04:06:27;101700.28;;;11.15;96.57
67697;BME280;54486;51.442;6.778;2023-02-17T04:08:54;101714.22;;;11.14;96.55
67697;BME280;54486;51.442;6.778;2023-02-17T04:11:21;101713.38;;;11.19;96.47
67697;BME280;54486;51.442;6.778;2023-02-17T04:13:48;101725.56;;;11.20;96.20
67697;BME280;54486;51.442;6.778;2023-02-17T04:16:15;101732.50;;;11.18;95.91
67697;BME280;54486;51.442;6.778;2023-02-17T04:18:42;101711.59;;;11.18;95.81
67697;BME280;54486;51.442;6.778;2023-02-17T04:21:09;101714.25;;;11.21;95.94
67697;BME280;54486;51.442;6.778;2023-02-17T04:23:36;101713.41;;;11.26;95.42
67697;BME280;54486;51.442;6.778;2023-02-17T04:26:04;101709.03;;;11.24;95.63
67697;BME280;54486;51.442;6.778;2023-02-17T04:28:33;101702.06;;;11.23;95.71
67697;BME280;54486;51.442;6.778;2023-02-17T04:31:00;101702.91;;;11.20;95.35
67697;BME280;54486;51.442;6.778;2023-02-17T04:33:27;101698.56;;;11.21;95.47
67697;BME280;54486;51.442;6.778;2023-02-17T04:35:55;101693.34;;;11.21;95.02
67697;BME280;54486;51.442;6.778;2023-02-17T04:38:27;101699.44;;;11.17;95.69
67697;BME280;54486;51.442;6.778;2023-02-17T04:40:55;101699.47;;;11.24;94.94
67697;BME280;54486;51.442;6.778;2023-02-17T04:43:22;101702.06;;;11.23;94.83
67697;BME280;54486;51.442;6.778;2023-02-17T04:45:50;101696.81;;;11.18;94.85
67697;BME280;54486;51.442;6.778;2023-02-17T04:48:17;101681.16;;;11.20;94.54
67697;BME280;54486;51.442;6.778;2023-02-17T04:50:44;101695.97;;;11.19;94.58
67697;BME280;54486;51.442;6.778;2023-02-17T04:53:14;101703.78;;;11.21;94.12
67697;BME280;54486;51.442;6.778;2023-02-17T04:55:41;101707.28;;;11.20;94.18
67697;BME280;54486;51.442;6.778;2023-02-17T04:58:11;101709.00;;;11.18;94.52
67697;BME280;54486;51.442;6.778;2023-02-17T05:00:38;101710.75;;;11.19;94.29
67697;BME280;54486;51.442;6.778;2023-02-17T05:03:05;101700.31;;;11.19;94.52
67697;BME280;54486;51.442;6.778;2023-02-17T05:05:32;101719.47;;;11.24;93.71
67697;BME280;54486;51.442;6.778;2023-02-17T05:08:00;101703.81;;;11.27;94.05
67697;BME280;54486;51.442;6.778;2023-02-17T05:10:27;101701.16;;;11.21;94.06
67697;BME280;54486;51.442;6.778;2023-02-17T05:12:54;101700.28;;;11.20;93.87
67697;BME280;54486;51.442;6.778;2023-02-17T05:15:21;101682.91;;;11.24;92.76
67697;BME280;54486;51.442;6.778;2023-02-17T05:17:47;101684.66;;;11.22;92.16
67697;BME280;54486;51.442;6.778;2023-02-17T05:20:15;101687.28;;;11.26;92.37
67697;BME280;54486;51.442;6.778;2023-02-17T05:22:42;101696.84;;;11.23;91.80
67697;BME280;54486;51.442;6.778;2023-02-17T05:25:09;101691.66;;;11.29;91.10
67697;BME280;54486;51.442;6.778;2023-02-17T05:27:36;101702.06;;;11.21;91.65
67697;BME280;54486;51.442;6.778;2023-02-17T05:30:04;101699.44;;;11.21;91.34
67697;BME280;54486;51.442;6.778;2023-02-17T05:32:32;101689.00;;;11.21;91.69
67697;BME280;54486;51.442;6.778;2023-02-17T05:34:59;101691.63;;;11.23;91.41
67697;BME280;54486;51.442;6.778;2023-02-17T05:37:27;101675.94;;;11.23;91.93
67697;BME280;54486;51.442;6.778;2023-02-17T05:39:54;101693.31;;;11.18;92.20
67697;BME280;54486;51.442;6.778;2023-02-17T05:42:20;101681.16;;;11.17;92.59
67697;BME280;54486;51.442;6.778;2023-02-17T05:44:47;101683.75;;;11.21;92.48
67697;BME280;54486;51.442;6.778;2023-02-17T05:47:15;101672.44;;;11.24;92.41
67697;BME280;54486;51.442;6.778;2023-02-17T05:49:42;101686.38;;;11.20;92.98
67697;BME280;54486;51.442;6.778;2023-02-17T05:52:09;101688.16;;;11.30;92.71
67697;BME280;54486;51.442;6.778;2023-02-17T05:54:38;101691.66;;;11.29;93.09
67697;BME280;54486;51.442;6.778;2023-02-17T05:57:07;101687.28;;;11.26;93.22
67697;BME280;54486;51.442;6.778;2023-02-17T05:59:35;101684.66;;;11.25;93.32
67697;BME280;54486;51.442;6.778;2023-02-17T06:02:02;101678.56;;;11.27;93.17
67697;BME280;54486;51.442;6.778;2023-02-17T06:04:29;101675.97;;;11.26;93.12
67697;BME280;54486;51.442;6.778;2023-02-17T06:06:56;101674.22;;;11.28;93.36
67697;BME280;54486;51.442;6.778;2023-02-17T06:09:24;101660.28;;;11.23;93.51
67697;BME280;54486;51.442;6.778;2023-02-17T06:11:51;101660.25;;;11.21;93.02
67697;BME280;54486;51.442;6.778;2023-02-17T06:14:20;101662.00;;;11.21;93.36
67697;BME280;54486;51.442;6.778;2023-02-17T06:16:54;101681.19;;;11.23;93.34
67697;BME280;54486;51.442;6.778;2023-02-17T06:19:22;101670.75;;;11.29;93.17
67697;BME280;54486;51.442;6.778;2023-02-17T06:21:52;101670.72;;;11.24;93.72
67697;BME280;54486;51.442;6.778;2023-02-17T06:24:22;101669.00;;;11.31;93.66
67697;BME280;54486;51.442;6.778;2023-02-17T06:26:49;101669.84;;;11.25;93.96
67697;BME280;54486;51.442;6.778;2023-02-17T06:29:16;101689.88;;;11.22;94.33
67697;BME280;54486;51.442;6.778;2023-02-17T06:31:43;101690.75;;;11.24;94.50
67697;BME280;54486;51.442;6.778;2023-02-17T06:34:10;101685.56;;;11.34;93.93
67697;BME280;54486;51.442;6.778;2023-02-17T06:36:37;101685.53;;;11.33;94.22
67697;BME280;54486;51.442;6.778;2023-02-17T06:39:04;101688.19;;;11.36;94.48
67697;BME280;54486;51.442;6.778;2023-02-17T06:41:31;101681.22;;;11.32;94.65
67697;BME280;54486;51.442;6.778;2023-02-17T06:43:58;101679.47;;;11.34;94.43
67697;BME280;54486;51.442;6.778;2023-02-17T06:46:26;101682.09;;;11.35;95.18
67697;BME280;54486;51.442;6.778;2023-02-17T06:48:53;101672.47;;;11.30;95.45
67697;BME280;54486;51.442;6.778;2023-02-17T06:51:20;101647.19;;;11.24;96.67
67697;BME280;54486;51.442;6.778;2023-02-17T06:53:52;101660.28;;;11.30;97.65
67697;BME280;54486;51.442;6.778;2023-02-17T06:56:19;101681.16;;;11.20;98.51
67697;BME280;54486;51.442;6.778;2023-02-17T06:58:49;101673.31;;;11.17;99.41
67697;BME280;54486;51.442;6.778;2023-02-17T07:01:18;101663.72;;;11.19;99.93
67697;BME280;54486;51.442;6.778;2023-02-17T07:03:45;101655.84;;;11.09;100.00
67697;BME280;54486;51.442;6.778;2023-02-17T07:06:12;101646.28;;;11.11;100.00
67697;BME280;54486;51.442;6.778;2023-02-17T07:08:39;101659.34;;;11.11;100.00
67697;BME280;54486;51.442;6.778;2023-02-17T07:11:07;101675.88;;;11.10;100.00
67697;BME280;54486;51.442;6.778;2023-02-17T07:13:34;101674.16;;;11.09;100.00
67697;BME280;54486;51.442;6.778;2023-02-17T07:16:01;101674.19;;;11.19;100.00
67697;BME280;54486;51.442;6.778;2023-02-17T07:18:28;101683.75;;;11.13;100.00
67697;BME280;54486;51.442;6.778;2023-02-17T07:20:55;101689.84;;;11.15;100.00
67697;BME280;54486;51.442;6.778;2023-02-17T07:23:22;101681.13;;;11.18;100.00
67697;BME280;54486;51.442;6.778;2023-02-17T07:25:48;101688.09;;;11.21;100.00
67697;BME280;54486;51.442;6.778;2023-02-17T07:28:16;101689.00;;;11.23;100.00
67697;BME280;54486;51.442;6.778;2023-02-17T07:30:42;101676.84;;;11.28;99.99
67697;BME280;54486;51.442;6.778;2023-02-17T07:33:10;101680.28;;;11.22;100.00
67697;BME280;54486;51.442;6.778;2023-02-17T07:35:40;101683.78;;;11.23;100.00
67697;BME280;54486;51.442;6.778;2023-02-17T07:38:09;101676.81;;;11.25;100.00
67697;BME280;54486;51.442;6.778;2023-02-17T07:40:37;101681.19;;;11.26;99.97
67697;BME280;54486;51.442;6.778;2023-02-17T07:43:04;101682.06;;;11.34;99.64
67697;BME280;54486;51.442;6.778;2023-02-17T07:45:31;101674.25;;;11.32;99.73
67697;BME280;54486;51.442;6.778;2023-02-17T07:47:59;101680.31;;;11.30;99.84
67697;BME280;54486;51.442;6.778;2023-02-17T07:50:26;101675.97;;;11.32;99.97
67697;BME280;54486;51.442;6.778;2023-02-17T07:52:56;101684.69;;;11.37;99.08
67697;BME280;54486;51.442;6.778;2023-02-17T07:55:23;101676.88;;;11.43;98.98
67697;BME280;54486;51.442;6.778;2023-02-17T07:57:50;101679.50;;;11.46;98.92
67697;BME280;54486;51.442;6.778;2023-02-17T08:00:19;101678.63;;;11.41;99.04
67697;BME280;54486;51.442;6.778;2023-02-17T08:02:50;101682.13;;;11.44;98.94
67697;BME280;54486;51.442;6.778;2023-02-17T08:05:17;101673.38;;;11.39;98.97
67697;BME280;54486;51.442;6.778;2023-02-17T08:07:44;101689.09;;;11.44;98.95
67697;BME280;54486;51.442;6.778;2023-02-17T08:10:16;101674.25;;;11.43;98.92
67697;BME280;54486;51.442;6.778;2023-02-17T08:13:02;101676.00;;;11.41;99.00
67697;BME280;54486;51.442;6.778;2023-02-17T08:15:47;101683.00;;;11.43;99.03
67697;BME280;54486;51.442;6.778;2023-02-17T08:18:14;101681.28;;;11.50;98.33
67697;BME280;54486;51.442;6.778;2023-02-17T08:20:41;101670.81;;;11.50;98.71
67697;BME280;54486;51.442;6.778;2023-02-17T08:23:08;101670.81;;;11.50;98.15
67697;BME280;54486;51.442;6.778;2023-02-17T08:25:35;101669.97;;;11.54;97.66
67697;BME280;54486;51.442;6.778;2023-02-17T08:28:03;101653.44;;;11.58;98.05
67697;BME280;54486;51.442;6.778;2023-02-17T08:30:34;101651.69;;;11.63;96.66
67697;BME280;54486;51.442;6.778;2023-02-17T08:33:05;101656.06;;;11.64;97.26
67697;BME280;54486;51.442;6.778;2023-02-17T08:35:32;101656.03;;;11.68;97.14
67697;BME280;54486;51.442;6.778;2023-02-17T08:37:59;101658.66;;;11.67;96.23
67697;BME280;54486;51.442;6.778;2023-02-17T08:40:26;101649.97;;;11.71;96.15
67697;BME280;54486;51.442;6.778;2023-02-17T08:42:53;101653.47;;;11.70;95.83
67697;BME280;54486;51.442;6.778;2023-02-17T08:45:21;101653.50;;;11.73;95.85
67697;BME280;54486;51.442;6.778;2023-02-17T08:47:48;101644.78;;;11.83;95.43
67697;BME280;54486;51.442;6.778;2023-02-17T08:50:16;101648.28;;;11.85;94.66
67697;BME280;54486;51.442;6.778;2023-02-17T08:52:45;101653.50;;;11.88;94.74
67697;BME280;54486;51.442;6.778;2023-02-17T08:55:13;101663.09;;;11.91;94.27
67697;BME280;54486;51.442;6.778;2023-02-17T08:57:42;101665.72;;;11.92;94.31
67697;BME280;54486;51.442;6.778;2023-02-17T09:00:12;101669.19;;;11.97;94.48
67697;BME280;54486;51.442;6.778;2023-02-17T09:02:39;101661.34;;;12.03;93.52
67697;BME280;54486;51.442;6.778;2023-02-17T09:05:12;101657.03;;;12.05;93.13
67697;BME280;54486;51.442;6.778;2023-02-17T09:07:41;101661.38;;;12.14;92.86
67697;BME280;54486;51.442;6.778;2023-02-17T09:10:11;101672.72;;;12.14;92.34
67697;BME280;54486;51.442;6.778;2023-02-17T09:12:38;101677.09;;;12.15;92.38
67697;BME280;54486;51.442;6.778;2023-02-17T09:15:06;101666.63;;;12.22;92.48
67697;BME280;54486;51.442;6.778;2023-02-17T09:17:33;101672.72;;;12.27;91.65
67697;BME280;54486;51.442;6.778;2023-02-17T09:20:00;101670.13;;;12.31;91.13
67697;BME280;54486;51.442;6.778;2023-02-17T09:22:28;101674.47;;;12.43;90.96
67697;BME280;54486;51.442;6.778;2023-02-17T09:24:58;101664.00;;;12.40;90.74
67697;BME280;54486;51.442;6.778;2023-02-17T09:27:24;101668.34;;;12.44;90.96
67697;BME280;54486;51.442;6.778;2023-02-17T09:29:51;101670.97;;;12.44;90.80
67697;BME280;54486;51.442;6.778;2023-02-17T09:32:18;101666.63;;;12.44;91.34
67697;BME280;54486;51.442;6.778;2023-02-17T09:34:45;101663.97;;;12.52;90.53
67697;BME280;54486;51.442;6.778;2023-02-17T09:37:21;101675.31;;;12.61;90.29
67697;BME280;54486;51.442;6.778;2023-02-17T09:39:49;101665.72;;;12.62;89.98
67697;BME280;54486;51.442;6.778;2023-02-17T09:42:18;101679.69;;;12.73;89.74
67697;BME280;54486;51.442;6.778;2023-02-17T09:44:47;101678.78;;;12.77;89.25
67697;BME280;54486;51.442;6.778;2023-02-17T09:47:17;101700.59;;;12.88;88.34
67697;BME280;54486;51.442;6.778;2023-02-17T09:49:47;101692.75;;;12.85;88.57
67697;BME280;54486;51.442;6.778;2023-02-17T09:55:03;101691.84;;;12.95;87.84
67697;BME280;54486;51.442;6.778;2023-02-17T09:57:43;101697.09;;;12.86;88.15
67697;BME280;54486;51.442;6.778;2023-02-17T10:00:22;101694.44;;;12.89;88.31
67697;BME280;54486;51.442;6.778;2023-02-17T10:05:45;101691.84;;;12.98;88.26
67697;BME280;54486;51.442;6.778;2023-02-17T10:08:17;101711.06;;;12.94;87.88
67697;BME280;54486;51.442;6.778;2023-02-17T10:10:50;101704.06;;;12.96;87.90
67697;BME280;54486;51.442;6.778;2023-02-17T10:13:22;101694.47;;;12.98;87.71
67697;BME280;54486;51.442;6.778;2023-02-17T10:15:51;101702.31;;;13.01;87.85
67697;BME280;54486;51.442;6.778;2023-02-17T10:18:20;101703.16;;;13.03;88.05
67697;BME280;54486;51.442;6.778;2023-02-17T10:20:57;101707.53;;;13.07;87.14
67697;BME280;54486;51.442;6.778;2023-02-17T10:23:27;101745.97;;;13.08;87.53
67697;BME280;54486;51.442;6.778;2023-02-17T10:28:29;101730.22;;;13.05;87.20
67697;BME280;54486;51.442;6.778;2023-02-17T10:31:09;101729.34;;;13.02;87.21
67697;BME280;54486;51.442;6.778;2023-02-17T10:39:07;101702.31;;;13.04;87.69
67697;BME280;54486;51.442;6.778;2023-02-17T10:41:39;101702.31;;;13.04;87.25
67697;BME280;54486;51.442;6.778;2023-02-17T10:44:11;101693.56;;;13.08;87.06
67697;BME280;54486;51.442;6.778;2023-02-17T10:46:40;101697.06;;;13.09;87.18
67697;BME280;54486;51.442;6.778;2023-02-17T10:49:17;101704.03;;;13.20;87.28
67697;BME280;54486;51.442;6.778;2023-02-17T10:51:45;101702.25;;;13.29;86.89
67697;BME280;54486;51.442;6.778;2023-02-17T10:54:28;101705.69;;;13.38;86.13
67697;BME280;54486;51.442;6.778;2023-02-17T10:56:56;101716.19;;;13.43;85.16
67697;BME280;54486;51.442;6.778;2023-02-17T10:59:58;101700.44;;;13.43;85.17
67697;BME280;54486;51.442;6.778;2023-02-17T11:02:21;101702.16;;;13.50;85.78
67697;BME280;54486;51.442;6.778;2023-02-17T11:04:52;101709.16;;;13.48;85.26
67697;BME280;54486;51.442;6.778;2023-02-17T11:07:30;101700.41;;;13.49;84.83
67697;BME280;54486;51.442;6.778;2023-02-17T11:09:59;101705.69;;;13.46;85.11
67697;BME280;54486;51.442;6.778;2023-02-17T11:12:28;101682.97;;;13.46;84.78
67697;BME280;54486;51.442;6.778;2023-02-17T11:14:58;101668.16;;;13.33;84.82
67697;BME280;54486;51.442;6.778;2023-02-17T11:17:35;101685.59;;;13.37;84.83
67697;BME280;54486;51.442;6.778;2023-02-17T11:20:07;101677.72;;;13.45;85.03
67697;BME280;54486;51.442;6.778;2023-02-17T11:22:39;101666.28;;;13.53;84.47
67697;BME280;54486;51.442;6.778;2023-02-17T11:25:19;101682.84;;;13.63;83.81
67697;BME280;54486;51.442;6.778;2023-02-17T11:30:33;101672.31;;;13.75;82.41
67697;BME280;54486;51.442;6.778;2023-02-17T11:33:14;101683.63;;;13.82;82.35
67697;BME280;54486;51.442;6.778;2023-02-17T11:40:58;101668.75;;;13.82;81.52
67697;BME280;54486;51.442;6.778;2023-02-17T11:43:26;101703.69;;;13.90;81.27
67697;BME280;54486;51.442;6.778;2023-02-17T11:51:31;101697.50;;;14.00;80.32
67697;BME280;54486;51.442;6.778;2023-02-17T12:05:16;101638.09;;;13.90;81.29
67697;BME280;54486;51.442;6.778;2023-02-17T12:07:52;101623.16;;;13.98;80.81
67697;BME280;54486;51.442;6.778;2023-02-17T12:10:29;101626.59;;;14.09;80.74
67697;BME280;54486;51.442;6.778;2023-02-17T12:13:14;101638.81;;;14.13;80.36
67697;BME280;54486;51.442;6.778;2023-02-17T12:16:33;101642.31;;;14.12;79.84
67697;BME280;54486;51.442;6.778;2023-02-17T12:34:30;101647.31;;;14.43;79.33
67697;BME280;54486;51.442;6.778;2023-02-17T12:37:00;101640.38;;;14.39;79.56
67697;BME280;54486;51.442;6.778;2023-02-17T12:39:41;101633.38;;;14.38;79.36
67697;BME280;54486;51.442;6.778;2023-02-17T12:42:33;101622.84;;;14.38;79.30
67697;BME280;54486;51.442;6.778;2023-02-17T12:44:59;101628.16;;;14.28;79.79
67697;BME280;54486;51.442;6.778;2023-02-17T12:47:30;101637.75;;;14.32;79.64
67697;BME280;54486;51.442;6.778;2023-02-17T12:50:20;101656.16;;;14.34;79.29
67697;BME280;54486;51.442;6.778;2023-02-17T12:52:50;101650.03;;;14.34;79.49
67697;BME280;54486;51.442;6.778;2023-02-17T12:55:23;101645.66;;;14.36;79.52
67697;BME280;54486;51.442;6.778;2023-02-17T12:57:55;101647.38;;;14.37;79.60
67697;BME280;54486;51.442;6.778;2023-02-17T13:00:26;101647.34;;;14.40;79.75
67697;BME280;54486;51.442;6.778;2023-02-17T13:02:56;101642.97;;;14.42;79.83
67697;BME280;54486;51.442;6.778;2023-02-17T13:05:26;101643.78;;;14.47;79.86
67697;BME280;54486;51.442;6.778;2023-02-17T13:10:28;101654.25;;;14.50;79.11
67697;BME280;54486;51.442;6.778;2023-02-17T13:15:32;101654.25;;;14.50;79.07
67697;BME280;54486;51.442;6.778;2023-02-17T13:18:04;101655.19;;;14.43;79.65
67697;BME280;54486;51.442;6.778;2023-02-17T13:23:57;101659.63;;;14.38;80.01
67697;BME280;54486;51.442;6.778;2023-02-17T13:26:13;101649.09;;;14.41;79.97
67697;BME280;54486;51.442;6.778;2023-02-17T13:28:49;101652.56;;;14.43;79.97
67697;BME280;54486;51.442;6.778;2023-02-17T13:31:18;101663.06;;;14.44;80.17
67697;BME280;54486;51.442;6.778;2023-02-17T13:33:52;101642.00;;;14.49;79.72
67697;BME280;54486;51.442;6.778;2023-02-17T13:38:58;101654.28;;;14.47;80.17
67697;BME280;54486;51.442;6.778;2023-02-17T13:41:31;101659.50;;;14.50;79.74
67697;BME280;54486;51.442;6.778;2023-02-17T13:43:58;101660.38;;;14.50;79.94
67697;BME280;54486;51.442;6.778;2023-02-17T13:46:26;101673.56;;;14.44;79.36
67697;BME280;54486;51.442;6.778;2023-02-17T13:49:04;101682.28;;;14.48;79.39
67697;BME280;54486;51.442;6.778;2023-02-17T13:51:31;101686.63;;;14.49;79.17
67697;BME280;54486;51.442;6.778;2023-02-17T13:54:03;101698.09;;;14.42;79.40
67697;BME280;54486;51.442;6.778;2023-02-17T13:56:30;101697.28;;;14.35;79.37
67697;BME280;54486;51.442;6.778;2023-02-17T13:59:08;101692.88;;;14.39;79.10
67697;BME280;54486;51.442;6.778;2023-02-17T14:01:37;101691.22;;;14.22;79.56
67697;BME280;54486;51.442;6.778;2023-02-17T14:04:20;101710.47;;;14.26;79.47
67697;BME280;54486;51.442;6.778;2023-02-17T14:06:48;101726.22;;;14.21;79.39
67697;BME280;54486;51.442;6.778;2023-02-17T14:12:49;101733.28;;;14.13;79.97
67697;BME280;54486;51.442;6.778;2023-02-17T14:15:17;101731.56;;;14.09;80.52
67697;BME280;54486;51.442;6.778;2023-02-17T14:17:44;101728.97;;;14.06;80.39
67697;BME280;54486;51.442;6.778;2023-02-17T14:23:12;101770.06;;;14.04;80.54
67697;BME280;54486;51.442;6.778;2023-02-17T14:25:42;101751.75;;;13.98;80.52
67697;BME280;54486;51.442;6.778;2023-02-17T14:28:30;101763.16;;;13.94;80.93
67697;BME280;54486;51.442;6.778;2023-02-17T14:34:32;101763.19;;;13.87;81.14
67697;BME280;54486;51.442;6.778;2023-02-17T14:37:15;101772.75;;;13.95;81.05
67697;BME280;54486;51.442;6.778;2023-02-17T14:39:44;101771.94;;;13.87;81.52
67697;BME280;54486;51.442;6.778;2023-02-17T14:44:54;101789.47;;;13.76;82.22